createdAt,value
2017-11-03T00:00:17.846Z,6.00
2017-11-03T00:02:45.387Z,6.00
2017-11-03T00:05:12.923Z,6.00
2017-11-03T00:07:40.462Z,6.00
2017-11-03T00:10:07.984Z,6.00
2017-11-03T00:12:35.534Z,6.00
2017-11-03T00:15:03.059Z,6.00
2017-11-03T00:17:30.605Z,6.00
2017-11-03T00:19:58.137Z,6.10
2017-11-03T00:22:25.677Z,6.10
2017-11-03T00:24:53.203Z,6.00
2017-11-03T00:27:20.751Z,6.00
2017-11-03T00:29:48.283Z,6.00
2017-11-03T00:32:15.832Z,6.00
2017-11-03T00:34:43.354Z,6.00
2017-11-03T00:37:10.900Z,6.00
2017-11-03T00:39:38.420Z,6.00
2017-11-03T00:42:05.962Z,6.10
2017-11-03T00:44:34.245Z,6.10
2017-11-03T00:47:01.778Z,6.10
2017-11-03T00:49:29.308Z,6.20
2017-11-03T00:51:56.851Z,6.20
2017-11-03T00:54:24.370Z,6.20
2017-11-03T00:56:51.912Z,6.20
2017-11-03T00:59:20.196Z,6.10
2017-11-03T01:01:47.731Z,6.10
2017-11-03T01:04:15.250Z,6.10
2017-11-03T01:06:43.550Z,6.20
2017-11-03T01:09:11.073Z,6.10
2017-11-03T01:11:38.611Z,6.20
2017-11-03T01:14:06.128Z,6.20
2017-11-03T01:16:33.679Z,6.20
2017-11-03T01:19:01.215Z,6.20
2017-11-03T01:21:28.758Z,6.20
2017-11-03T01:23:57.048Z,6.30
2017-11-03T01:26:24.599Z,6.30
2017-11-03T01:28:52.119Z,6.30
2017-11-03T01:31:19.666Z,6.40
2017-11-03T01:33:47.194Z,6.40
2017-11-03T01:36:14.736Z,6.40
2017-11-03T01:38:42.255Z,6.40
2017-11-03T01:41:09.827Z,6.40
2017-11-03T01:43:37.346Z,6.40
2017-11-03T01:46:04.878Z,6.30
2017-11-03T01:48:32.400Z,6.30
2017-11-03T01:50:59.948Z,6.30
2017-11-03T01:53:28.255Z,6.40
2017-11-03T01:55:55.784Z,6.30
2017-11-03T01:58:24.097Z,6.30
2017-11-03T02:00:51.623Z,6.20
2017-11-03T02:03:19.939Z,6.20
2017-11-03T02:05:47.485Z,6.20
2017-11-03T02:08:15.039Z,6.20
2017-11-03T02:10:43.322Z,6.30
2017-11-03T02:13:10.862Z,6.30
2017-11-03T02:15:39.146Z,6.30
2017-11-03T02:18:07.453Z,6.30
2017-11-03T02:20:34.975Z,6.30
2017-11-03T02:23:02.517Z,6.30
2017-11-03T02:25:30.049Z,6.30
2017-11-03T02:27:57.588Z,6.30
2017-11-03T02:30:25.120Z,6.30
2017-11-03T02:32:52.668Z,6.30
2017-11-03T02:35:20.190Z,6.40
2017-11-03T02:37:47.734Z,6.40
2017-11-03T02:40:15.267Z,6.40
2017-11-03T02:42:43.577Z,6.40
2017-11-03T02:45:11.104Z,6.30
2017-11-03T02:47:39.414Z,6.30
2017-11-03T02:50:06.947Z,6.30
2017-11-03T02:52:35.258Z,6.30
2017-11-03T02:55:02.797Z,6.20
2017-11-03T02:57:30.340Z,6.20
2017-11-03T02:59:58.634Z,6.20
2017-11-03T03:02:26.943Z,6.20
2017-11-03T03:04:54.466Z,6.20
2017-11-03T03:07:22.768Z,6.20
2017-11-03T03:09:50.292Z,6.10
2017-11-03T03:12:17.837Z,6.10
2017-11-03T03:14:45.370Z,6.10
2017-11-03T03:17:12.909Z,6.10
2017-11-03T03:19:40.439Z,6.00
2017-11-03T03:22:07.978Z,5.90
2017-11-03T03:24:35.515Z,5.90
2017-11-03T03:27:03.069Z,5.80
2017-11-03T03:29:30.597Z,5.80
2017-11-03T03:31:58.902Z,5.70
2017-11-03T03:34:26.434Z,5.70
2017-11-03T03:36:54.748Z,5.60
2017-11-03T03:39:22.278Z,5.60
2017-11-03T03:41:50.582Z,5.50
2017-11-03T03:44:18.109Z,5.50
2017-11-03T03:46:46.422Z,5.30
2017-11-03T03:49:13.952Z,5.30
2017-11-03T03:51:42.263Z,5.20
2017-11-03T03:54:09.801Z,5.20
2017-11-03T03:56:38.117Z,5.00
2017-11-03T03:59:05.649Z,5.00
2017-11-03T04:01:33.191Z,4.90
2017-11-03T04:04:01.485Z,4.90
2017-11-03T04:06:29.006Z,4.90
2017-11-03T04:08:56.561Z,4.80
2017-11-03T04:11:24.096Z,4.80
2017-11-03T04:13:51.650Z,4.70
2017-11-03T04:16:19.191Z,4.70
2017-11-03T04:18:46.735Z,4.70
2017-11-03T04:21:15.036Z,4.50
2017-11-03T04:23:42.579Z,4.50
2017-11-03T04:26:10.876Z,4.30
2017-11-03T04:28:38.414Z,4.30
2017-11-03T04:31:06.703Z,4.30
2017-11-03T04:33:35.019Z,4.30
2017-11-03T04:36:02.536Z,4.30
2017-11-03T04:38:30.850Z,4.30
2017-11-03T04:40:58.376Z,4.30
2017-11-03T04:43:26.683Z,4.30
2017-11-03T04:45:54.211Z,4.20
2017-11-03T04:48:22.527Z,3.90
2017-11-03T04:50:50.047Z,3.90
2017-11-03T04:53:18.370Z,3.80
2017-11-03T04:55:45.898Z,3.80
2017-11-03T04:58:14.212Z,3.80
2017-11-03T05:00:41.748Z,3.80
2017-11-03T05:03:10.069Z,3.70
2017-11-03T05:05:37.599Z,3.70
2017-11-03T05:08:05.147Z,3.60
2017-11-03T05:10:33.434Z,3.40
2017-11-03T05:13:01.746Z,3.40
2017-11-03T05:15:29.283Z,3.40
2017-11-03T05:17:56.839Z,3.40
2017-11-03T05:20:24.374Z,3.40
2017-11-03T05:22:51.922Z,3.30
2017-11-03T05:25:19.457Z,3.30
2017-11-03T05:27:47.015Z,3.30
2017-11-03T05:30:14.555Z,3.30
2017-11-03T05:32:42.112Z,3.30
2017-11-03T05:35:09.649Z,3.30
2017-11-03T05:37:38.499Z,3.30
2017-11-03T05:40:06.028Z,3.30
2017-11-03T05:42:33.579Z,3.20
2017-11-03T05:45:01.877Z,3.10
2017-11-03T05:47:29.427Z,3.10
2017-11-03T05:49:56.959Z,3.10
2017-11-03T05:52:24.510Z,3.10
2017-11-03T05:54:52.047Z,3.10
2017-11-03T05:57:19.599Z,3.10
2017-11-03T05:59:47.136Z,3.10
2017-11-03T06:02:14.688Z,3.00
2017-11-03T06:04:42.992Z,2.80
2017-11-03T06:07:10.548Z,2.80
2017-11-03T06:09:38.088Z,2.80
2017-11-03T06:12:06.395Z,2.70
2017-11-03T06:14:33.949Z,2.70
2017-11-03T06:17:01.485Z,2.70
2017-11-03T06:19:29.803Z,2.80
2017-11-03T06:21:57.335Z,2.70
2017-11-03T06:24:25.647Z,2.80
2017-11-03T06:26:53.188Z,2.80
2017-11-03T06:29:21.519Z,2.70
2017-11-03T06:31:49.903Z,2.70
2017-11-03T06:34:17.456Z,2.80
2017-11-03T06:36:44.997Z,2.80
2017-11-03T06:39:12.547Z,2.80
2017-11-03T06:41:40.084Z,2.90
2017-11-03T06:44:08.403Z,3.40
2017-11-03T06:46:35.944Z,3.30
2017-11-03T06:49:03.498Z,3.90
2017-11-03T06:51:31.795Z,5.10
2017-11-03T06:53:59.354Z,5.10
2017-11-03T06:56:26.891Z,5.60
2017-11-03T06:58:55.327Z,6.00
2017-11-03T07:01:23.634Z,6.10
2017-11-03T07:03:51.183Z,6.10
2017-11-03T07:06:18.747Z,6.50
2017-11-03T07:08:46.309Z,6.90
2017-11-03T07:11:13.845Z,7.40
2017-11-03T07:13:41.399Z,7.90
2017-11-03T07:16:08.926Z,8.30
2017-11-03T07:18:37.226Z,9.00
2017-11-03T07:21:04.756Z,9.00
2017-11-03T07:23:33.080Z,9.60
2017-11-03T07:26:00.627Z,9.60
2017-11-03T07:28:28.181Z,9.70
2017-11-03T07:30:55.730Z,9.60
2017-11-03T07:33:23.296Z,9.90
2017-11-03T07:35:50.850Z,10.00
2017-11-03T07:38:19.187Z,10.10
2017-11-03T07:40:47.541Z,10.30
2017-11-03T07:43:15.192Z,10.40
2017-11-03T07:45:42.728Z,10.60
2017-11-03T07:48:11.034Z,10.90
2017-11-03T07:50:38.564Z,10.90
2017-11-03T07:53:06.876Z,11.50
2017-11-03T07:55:34.412Z,11.50
2017-11-03T07:58:02.732Z,12.50
2017-11-03T08:00:30.259Z,12.50
2017-11-03T08:02:57.807Z,12.90
2017-11-03T08:05:26.099Z,13.60
2017-11-03T08:07:53.653Z,13.60
2017-11-03T08:10:21.224Z,13.90
2017-11-03T08:12:48.771Z,14.10
2017-11-03T08:15:17.079Z,14.20
2017-11-03T08:17:44.633Z,14.10
2017-11-03T08:20:12.162Z,14.10
2017-11-03T08:22:40.480Z,14.30
2017-11-03T08:25:08.022Z,14.30
2017-11-03T08:27:35.555Z,14.60
2017-11-03T08:30:03.883Z,15.30
2017-11-03T08:32:31.415Z,15.30
2017-11-03T08:34:58.960Z,15.70
2017-11-03T08:37:27.255Z,16.60
2017-11-03T08:39:54.809Z,16.50
2017-11-03T08:42:22.348Z,16.90
2017-11-03T08:44:50.675Z,17.30
2017-11-03T08:47:18.205Z,17.30
2017-11-03T08:49:45.758Z,17.50
2017-11-03T08:52:14.057Z,18.00
2017-11-03T08:54:41.608Z,18.00
2017-11-03T08:57:09.142Z,18.40
2017-11-03T08:59:36.695Z,18.70
2017-11-03T09:02:04.222Z,18.80
2017-11-03T09:04:31.770Z,18.80
2017-11-03T09:06:59.303Z,18.80
2017-11-03T09:09:27.611Z,19.20
2017-11-03T09:11:55.143Z,19.20
2017-11-03T09:14:22.692Z,19.50
2017-11-03T09:16:50.988Z,19.50
2017-11-03T09:19:18.539Z,19.50
2017-11-03T09:21:46.830Z,18.70
2017-11-03T09:24:14.382Z,18.70
2017-11-03T09:26:41.908Z,18.00
2017-11-03T09:29:09.455Z,17.30
2017-11-03T09:31:36.980Z,16.60
2017-11-03T09:34:04.524Z,16.30
2017-11-03T09:36:32.059Z,16.60
2017-11-03T09:39:00.382Z,16.60
2017-11-03T09:41:27.921Z,16.60
2017-11-03T09:43:56.231Z,16.00
2017-11-03T09:46:23.764Z,15.90
2017-11-03T09:48:51.327Z,15.50
2017-11-03T09:51:18.886Z,15.30
2017-11-03T09:53:46.425Z,15.30
2017-11-03T09:56:14.722Z,15.30
2017-11-03T09:58:42.279Z,15.30
2017-11-03T10:01:10.575Z,14.70
2017-11-03T10:03:38.128Z,14.70
2017-11-03T10:06:05.660Z,14.80
2017-11-03T10:08:33.983Z,14.70
2017-11-03T10:11:01.508Z,14.70
2017-11-03T10:13:29.819Z,15.00
2017-11-03T10:15:57.355Z,14.90
2017-11-03T10:18:24.894Z,15.00
2017-11-03T10:20:53.190Z,15.10
2017-11-03T10:23:20.744Z,15.10
2017-11-03T10:25:49.035Z,15.60
2017-11-03T10:28:16.587Z,15.60
2017-11-03T10:30:44.118Z,15.50
2017-11-03T10:33:11.652Z,15.40
2017-11-03T10:35:39.204Z,15.30
2017-11-03T10:38:06.734Z,15.50
2017-11-03T10:40:34.300Z,15.80
2017-11-03T10:43:01.832Z,15.90
2017-11-03T10:45:30.151Z,15.30
2017-11-03T10:47:57.684Z,15.30
2017-11-03T10:50:25.242Z,15.40
2017-11-03T10:52:53.535Z,16.40
2017-11-03T10:55:21.859Z,17.10
2017-11-03T10:57:49.392Z,17.10
2017-11-03T11:00:16.938Z,18.00
2017-11-03T11:02:44.468Z,18.70
2017-11-03T11:05:12.786Z,20.40
2017-11-03T11:07:40.313Z,20.30
2017-11-03T11:10:08.622Z,19.20
2017-11-03T11:12:36.155Z,19.20
2017-11-03T11:15:04.475Z,18.90
2017-11-03T11:17:32.003Z,18.90
2017-11-03T11:19:59.551Z,18.70
2017-11-03T11:22:27.853Z,18.10
2017-11-03T11:24:55.409Z,18.10
2017-11-03T11:27:22.945Z,18.00
2017-11-03T11:29:51.255Z,17.90
2017-11-03T11:32:18.798Z,17.90
2017-11-03T11:34:46.342Z,17.60
2017-11-03T11:37:14.630Z,17.50
2017-11-03T11:39:42.179Z,17.40
2017-11-03T11:42:10.480Z,16.70
2017-11-03T11:44:38.267Z,16.60
2017-11-03T11:47:05.796Z,16.60
2017-11-03T11:49:33.347Z,16.40
2017-11-03T11:52:01.641Z,15.50
2017-11-03T11:54:29.184Z,15.50
2017-11-03T11:56:57.477Z,14.70
2017-11-03T11:59:25.035Z,14.70
2017-11-03T12:01:52.560Z,14.40
2017-11-03T12:04:20.115Z,14.30
2017-11-03T12:06:47.644Z,14.00
2017-11-03T12:09:15.188Z,13.90
2017-11-03T12:11:42.727Z,13.90
2017-11-03T12:14:11.044Z,13.60
2017-11-03T12:16:38.578Z,13.60
2017-11-03T12:19:06.124Z,13.50
2017-11-03T12:21:34.417Z,13.40
2017-11-03T12:24:01.962Z,13.40
2017-11-03T12:26:30.258Z,13.20
2017-11-03T12:28:57.813Z,13.20
2017-11-03T12:31:25.347Z,13.30
2017-11-03T12:33:53.674Z,13.20
2017-11-03T12:36:21.216Z,13.20
2017-11-03T12:38:48.752Z,13.20
2017-11-03T12:41:17.132Z,12.90
2017-11-03T12:43:45.432Z,12.80
2017-11-03T12:46:12.987Z,12.80
2017-11-03T12:48:41.280Z,12.80
2017-11-03T12:51:08.837Z,12.80
2017-11-03T12:53:36.365Z,12.70
2017-11-03T12:56:03.917Z,12.70
2017-11-03T12:58:31.454Z,12.70
2017-11-03T13:00:59.006Z,12.70
2017-11-03T13:03:26.534Z,12.60
2017-11-03T13:05:54.079Z,12.50
2017-11-03T13:08:22.373Z,12.30
2017-11-03T13:10:49.930Z,12.30
2017-11-03T13:13:17.527Z,12.30
2017-11-03T13:15:45.079Z,12.30
2017-11-03T13:18:12.619Z,12.20
2017-11-03T13:20:40.177Z,12.20
2017-11-03T13:23:07.711Z,12.20
2017-11-03T13:25:36.035Z,12.10
2017-11-03T13:28:03.587Z,12.10
2017-11-03T13:30:31.147Z,12.20
2017-11-03T13:32:58.697Z,12.30
2017-11-03T13:35:26.248Z,12.20
2017-11-03T13:37:54.544Z,12.30
2017-11-03T13:40:22.139Z,12.20
2017-11-03T13:42:49.671Z,12.30
2017-11-03T13:45:17.215Z,12.30
2017-11-03T13:47:44.747Z,12.30
2017-11-03T13:50:12.290Z,12.30
2017-11-03T13:52:39.820Z,12.20
2017-11-03T13:55:07.364Z,12.10
2017-11-03T13:57:34.895Z,12.10
2017-11-03T14:00:03.223Z,12.00
2017-11-03T14:02:30.756Z,12.00
2017-11-03T14:04:58.302Z,11.90
2017-11-03T14:07:26.602Z,11.80
2017-11-03T14:09:54.151Z,11.80
2017-11-03T14:12:22.447Z,11.70
2017-11-03T14:14:49.995Z,11.70
2017-11-03T14:17:17.528Z,11.70
2017-11-03T14:19:45.843Z,11.60
2017-11-03T14:22:13.366Z,11.60
2017-11-03T14:24:41.690Z,11.60
2017-11-03T14:27:09.226Z,11.60
2017-11-03T14:29:37.549Z,11.60
2017-11-03T14:32:05.081Z,11.50
2017-11-03T14:34:32.634Z,11.60
2017-11-03T14:37:00.163Z,11.50
2017-11-03T14:39:27.720Z,11.40
2017-11-03T14:41:55.253Z,11.30
2017-11-03T14:44:22.819Z,11.30
2017-11-03T14:46:50.349Z,11.20
2017-11-03T14:49:17.883Z,11.10
2017-11-03T14:51:45.436Z,11.10
2017-11-03T14:54:13.732Z,11.00
2017-11-03T14:56:41.297Z,11.00
2017-11-03T14:59:08.831Z,11.00
2017-11-03T15:01:37.158Z,10.90
2017-11-03T15:04:04.707Z,10.90
2017-11-03T15:06:32.251Z,10.90
2017-11-03T15:09:00.547Z,10.80
2017-11-03T15:11:28.101Z,10.80
2017-11-03T15:13:55.648Z,10.80
2017-11-03T15:16:23.235Z,10.60
2017-11-03T15:18:50.760Z,10.50
2017-11-03T15:21:19.075Z,10.30
2017-11-03T15:23:46.603Z,10.30
2017-11-03T15:26:14.924Z,10.10
2017-11-03T15:28:42.451Z,10.10
2017-11-03T15:31:10.004Z,10.10
2017-11-03T15:33:38.292Z,9.80
2017-11-03T15:36:05.838Z,9.70
2017-11-03T15:38:34.127Z,9.50
2017-11-03T15:41:01.683Z,9.40
2017-11-03T15:43:29.982Z,9.20
2017-11-03T15:45:57.532Z,9.20
2017-11-03T15:48:25.069Z,9.20
2017-11-03T15:50:53.384Z,9.00
2017-11-03T15:53:20.910Z,8.90
2017-11-03T15:55:49.220Z,8.60
2017-11-03T15:58:16.751Z,8.60
2017-11-03T16:00:45.068Z,8.50
2017-11-03T16:03:12.600Z,8.40
2017-11-03T16:05:40.913Z,8.30
2017-11-03T16:08:08.448Z,8.30
2017-11-03T16:10:36.013Z,8.20
2017-11-03T16:13:03.552Z,8.10
2017-11-03T16:15:31.884Z,7.90
2017-11-03T16:17:59.418Z,7.90
2017-11-03T16:20:26.971Z,7.90
2017-11-03T16:22:54.495Z,7.80
2017-11-03T16:25:22.035Z,7.70
2017-11-03T16:27:49.559Z,7.80
2017-11-03T16:30:17.103Z,7.70
2017-11-03T16:32:45.391Z,7.50
2017-11-03T16:35:12.947Z,7.50
2017-11-03T16:37:40.479Z,7.40
2017-11-03T16:40:08.026Z,7.30
2017-11-03T16:42:35.551Z,7.20
2017-11-03T16:45:05.391Z,7.00
2017-11-03T16:47:32.921Z,7.00
2017-11-03T16:50:00.476Z,7.00
2017-11-03T16:52:28.013Z,6.90
2017-11-03T16:54:56.338Z,6.90
2017-11-03T16:57:23.868Z,6.80
2017-11-03T16:59:51.407Z,6.80
2017-11-03T17:02:18.952Z,6.80
2017-11-03T17:04:46.491Z,6.70
2017-11-03T17:07:14.039Z,6.60
2017-11-03T17:09:41.571Z,6.50
2017-11-03T17:12:09.889Z,6.40
2017-11-03T17:14:37.418Z,6.40
2017-11-03T17:17:04.964Z,6.30
2017-11-03T17:19:33.270Z,6.30
2017-11-03T17:22:00.823Z,6.20
2017-11-03T17:24:28.351Z,6.30
2017-11-03T17:26:56.662Z,6.30
2017-11-03T17:29:24.196Z,6.20
2017-11-03T17:31:52.513Z,6.20
2017-11-03T17:34:20.034Z,6.20
2017-11-03T17:36:48.352Z,5.90
2017-11-03T17:39:15.889Z,5.90
2017-11-03T17:41:43.445Z,5.70
2017-11-03T17:44:10.983Z,5.70
2017-11-03T17:46:39.305Z,5.70
2017-11-03T17:49:06.853Z,5.70
2017-11-03T17:51:34.398Z,5.70
2017-11-03T17:54:02.685Z,5.60
2017-11-03T17:56:30.291Z,5.50
2017-11-03T17:58:57.824Z,5.50
2017-11-03T18:01:25.370Z,5.50
2017-11-03T18:03:52.960Z,5.30
2017-11-03T18:06:20.511Z,5.20
2017-11-03T18:08:48.095Z,5.10
2017-11-03T18:11:15.694Z,5.10
2017-11-03T18:13:43.983Z,5.20
2017-11-03T18:16:11.528Z,5.10
2017-11-03T18:18:39.885Z,5.20
2017-11-03T18:21:07.427Z,5.20
2017-11-03T18:23:34.959Z,5.20
2017-11-03T18:26:02.509Z,5.20
2017-11-03T18:28:30.041Z,5.30
2017-11-03T18:30:57.572Z,5.20
2017-11-03T18:33:25.170Z,5.30
2017-11-03T18:35:53.459Z,5.20
2017-11-03T18:38:21.772Z,5.10
2017-11-03T18:40:49.299Z,5.10
2017-11-03T18:43:17.616Z,5.00
2017-11-03T18:45:45.165Z,4.90
2017-11-03T18:48:12.715Z,4.90
2017-11-03T18:50:40.295Z,4.90
2017-11-03T18:53:07.844Z,4.80
2017-11-03T18:55:35.416Z,4.80
2017-11-03T18:58:03.026Z,4.80
2017-11-03T19:00:31.376Z,4.60
2017-11-03T19:02:58.927Z,4.60
2017-11-03T19:05:26.451Z,4.50
2017-11-03T19:07:53.999Z,4.50
2017-11-03T19:10:22.334Z,4.50
2017-11-03T19:12:49.880Z,4.40
2017-11-03T19:15:17.466Z,4.50
2017-11-03T19:17:45.016Z,4.50
2017-11-03T19:20:12.543Z,4.50
2017-11-03T19:22:40.147Z,4.50
2017-11-03T19:25:07.721Z,4.40
2017-11-03T19:27:35.309Z,4.40
2017-11-03T19:30:02.895Z,4.40
2017-11-03T19:32:30.507Z,4.40
2017-11-03T19:34:58.035Z,4.50
2017-11-03T19:37:25.579Z,4.50
2017-11-03T19:39:53.106Z,4.60
2017-11-03T19:42:21.475Z,4.60
2017-11-03T19:44:49.781Z,4.60
2017-11-03T19:47:17.328Z,4.60
2017-11-03T19:49:45.675Z,4.70
2017-11-03T19:52:13.279Z,4.70
2017-11-03T19:54:40.859Z,4.80
2017-11-03T19:57:08.467Z,4.80
2017-11-03T19:59:35.999Z,4.90
2017-11-03T20:02:03.550Z,4.90
2017-11-03T20:04:31.131Z,4.90
2017-11-03T20:06:58.675Z,4.90
2017-11-03T20:09:26.967Z,4.70
2017-11-03T20:11:54.516Z,4.70
2017-11-03T20:14:22.095Z,4.60
2017-11-03T20:16:49.702Z,4.60
2017-11-03T20:19:17.240Z,4.70
2017-11-03T20:21:44.839Z,4.70
2017-11-03T20:24:12.415Z,4.80
2017-11-03T20:26:39.966Z,4.90
2017-11-03T20:29:07.543Z,4.90
2017-11-03T20:31:35.068Z,5.00
2017-11-03T20:34:02.681Z,5.10
2017-11-03T20:36:30.264Z,5.10
2017-11-03T20:38:57.866Z,5.20
2017-11-03T20:41:25.450Z,5.30
2017-11-03T20:43:53.053Z,5.30
2017-11-03T20:46:20.581Z,5.30
2017-11-03T20:48:48.180Z,5.20
2017-11-03T20:51:16.475Z,5.10
2017-11-03T20:53:44.785Z,5.10
2017-11-03T20:56:12.364Z,5.10
2017-11-03T20:58:39.962Z,5.10
2017-11-03T21:01:12.295Z,5.10
2017-11-03T21:03:39.843Z,5.10
2017-11-03T21:06:07.370Z,5.10
2017-11-03T21:08:34.924Z,5.10
2017-11-03T21:11:03.272Z,5.10
2017-11-03T21:13:30.820Z,5.10
2017-11-03T21:15:58.398Z,5.20
2017-11-03T21:18:25.947Z,5.10
2017-11-03T21:20:53.534Z,5.20
2017-11-03T21:23:21.129Z,5.20
2017-11-03T21:25:48.710Z,5.20
2017-11-03T21:28:16.261Z,5.20
2017-11-03T21:30:43.840Z,5.20
2017-11-03T21:33:11.393Z,5.20
2017-11-03T21:35:38.918Z,5.30
2017-11-03T21:38:07.237Z,5.30
2017-11-03T21:40:34.817Z,5.30
2017-11-03T21:43:02.363Z,5.30
2017-11-03T21:45:29.890Z,5.20
2017-11-03T21:47:58.254Z,5.10
2017-11-03T21:50:25.826Z,5.10
2017-11-03T21:52:54.149Z,5.10
2017-11-03T21:55:21.731Z,5.00
2017-11-03T21:57:49.326Z,5.00
2017-11-03T22:00:16.902Z,5.00
2017-11-03T22:02:45.306Z,5.00
2017-11-03T22:05:12.886Z,5.00
2017-11-03T22:07:40.435Z,4.90
2017-11-03T22:10:07.958Z,4.90
2017-11-03T22:12:35.553Z,4.90
2017-11-03T22:15:03.135Z,4.90
2017-11-03T22:17:30.686Z,4.80
2017-11-03T22:19:58.262Z,4.80
2017-11-03T22:22:25.811Z,4.70
2017-11-03T22:24:53.331Z,4.70
2017-11-03T22:27:20.876Z,4.60
2017-11-03T22:29:48.450Z,4.60
2017-11-03T22:32:15.998Z,4.60
2017-11-03T22:34:43.524Z,4.60
2017-11-03T22:37:11.132Z,4.50
2017-11-03T22:39:38.665Z,4.60
2017-11-03T22:42:06.277Z,4.60
2017-11-03T22:44:34.591Z,4.60
2017-11-03T22:47:02.118Z,4.50
2017-11-03T22:49:30.431Z,4.50
2017-11-03T22:51:57.997Z,4.50
2017-11-03T22:54:25.551Z,4.40
2017-11-03T22:56:53.121Z,4.40
2017-11-03T22:59:21.094Z,4.50
2017-11-03T23:01:48.624Z,4.40
2017-11-03T23:04:16.158Z,4.50
2017-11-03T23:06:43.683Z,4.50
2017-11-03T23:09:11.265Z,4.40
2017-11-03T23:11:38.787Z,4.40
2017-11-03T23:14:07.095Z,4.20
2017-11-03T23:16:34.620Z,4.20
2017-11-03T23:19:02.930Z,4.10
2017-11-03T23:21:30.450Z,4.10
2017-11-03T23:23:57.997Z,4.10
2017-11-03T23:26:25.519Z,4.00
2017-11-03T23:28:53.068Z,4.00
2017-11-03T23:31:20.600Z,4.00
2017-11-03T23:33:48.139Z,4.00
2017-11-03T23:36:15.669Z,4.00
2017-11-03T23:38:43.218Z,4.00
2017-11-03T23:41:10.751Z,4.00
2017-11-03T23:43:38.295Z,4.00
2017-11-03T23:46:05.824Z,4.00
2017-11-03T23:48:33.381Z,4.00
2017-11-03T23:51:00.912Z,3.90
2017-11-03T23:53:28.481Z,3.90
2017-11-03T23:55:56.024Z,3.90
2017-11-03T23:58:23.569Z,3.90
